createdAt,value
2022-11-16T00:05:42.803Z,-0.26
2022-11-16T00:08:14.361Z,-0.28
2022-11-16T00:19:40.554Z,-0.32
2022-11-16T00:22:09.789Z,-0.35
2022-11-16T00:30:45.140Z,-0.36
2022-11-16T00:33:16.372Z,-0.45
2022-11-16T00:35:46.700Z,-0.48
2022-11-16T00:38:17.859Z,-0.45
2022-11-16T00:40:48.420Z,-0.50
2022-11-16T00:43:17.390Z,-0.55
2022-11-16T00:45:47.560Z,-0.56
2022-11-16T00:48:15.935Z,-0.47
2022-11-16T00:50:45.717Z,-0.39
2022-11-16T00:53:15.093Z,-0.35
2022-11-16T00:55:45.381Z,-0.40
2022-11-16T00:58:15.787Z,-0.40
2022-11-16T01:00:44.884Z,-0.56
2022-11-16T01:03:16.979Z,-0.57
2022-11-16T01:05:45.601Z,-0.65
2022-11-16T01:08:14.178Z,-0.65
2022-11-16T01:10:43.278Z,-0.69
2022-11-16T01:13:11.155Z,-0.71
2022-11-16T01:15:40.079Z,-0.78
2022-11-16T01:18:09.839Z,-0.73
2022-11-16T01:20:41.530Z,-0.70
2022-11-16T01:23:09.989Z,-0.70
2022-11-16T01:25:40.239Z,-0.69
2022-11-16T01:28:08.820Z,-0.62
2022-11-16T01:30:38.463Z,-0.72
2022-11-16T01:33:06.826Z,-0.67
2022-11-16T01:35:36.389Z,-0.71
2022-11-16T01:38:06.985Z,-0.64
2022-11-16T01:40:35.330Z,-0.67
2022-11-16T01:43:03.647Z,-0.72
2022-11-16T01:45:36.982Z,-0.64
2022-11-16T01:48:05.758Z,-0.62
2022-11-16T01:50:34.485Z,-0.59
2022-11-16T01:53:04.182Z,-0.64
2022-11-16T01:55:35.231Z,-0.62
2022-11-16T01:58:05.581Z,-0.55
2022-11-16T02:00:34.500Z,-0.60
2022-11-16T02:03:03.810Z,-0.55
2022-11-16T02:05:34.478Z,-0.64
2022-11-16T02:11:17.513Z,-0.74
2022-11-16T02:13:51.652Z,-0.80
2022-11-16T02:16:26.562Z,-0.74
2022-11-16T02:19:01.698Z,-0.69
2022-11-16T02:24:50.242Z,-0.76
2022-11-16T02:27:40.282Z,-0.77
2022-11-16T02:30:10.914Z,-0.82
2022-11-16T02:32:47.720Z,-0.86
2022-11-16T02:35:19.579Z,-0.90
2022-11-16T02:37:50.419Z,-0.92
2022-11-16T02:40:21.551Z,-0.94
2022-11-16T02:42:53.978Z,-0.93
2022-11-16T02:45:26.026Z,-0.91
2022-11-16T02:47:56.379Z,-0.91
2022-11-16T02:50:27.852Z,-0.96
2022-11-16T02:52:57.084Z,-0.96
2022-11-16T02:55:25.883Z,-0.95
2022-11-16T02:57:58.051Z,-0.96
2022-11-16T03:00:31.128Z,-0.92
2022-11-16T03:03:05.688Z,-0.95
2022-11-16T03:05:36.054Z,-1.09
2022-11-16T03:08:09.711Z,-1.06
2022-11-16T03:10:58.994Z,-1.02
2022-11-16T03:13:31.084Z,-0.98
2022-11-16T03:16:02.725Z,-0.99
2022-11-16T03:18:32.152Z,-0.96
2022-11-16T03:21:06.606Z,-0.95
2022-11-16T03:23:35.207Z,-0.94
2022-11-16T03:26:07.191Z,-0.97
2022-11-16T03:28:38.789Z,-0.95
2022-11-16T03:31:13.478Z,-1.05
2022-11-16T03:33:45.671Z,-0.98
2022-11-16T03:36:18.515Z,-1.04
2022-11-16T03:38:51.044Z,-1.04
2022-11-16T03:41:21.308Z,-1.08
2022-11-16T03:43:50.834Z,-1.04
2022-11-16T03:46:21.481Z,-1.04
2022-11-16T03:48:50.174Z,-1.03
2022-11-16T03:51:18.921Z,-1.02
2022-11-16T03:53:47.912Z,-1.07
2022-11-16T03:56:16.811Z,-1.02
2022-11-16T03:58:45.332Z,-1.07
2022-11-16T04:01:14.448Z,-1.09
2022-11-16T04:03:44.990Z,-1.14
2022-11-16T04:06:52.841Z,-1.14
2022-11-16T04:09:47.726Z,-1.09
2022-11-16T04:12:33.571Z,-1.14
2022-11-16T04:15:19.774Z,-1.28
2022-11-16T04:18:05.671Z,-1.34
2022-11-16T04:20:53.152Z,-1.39
2022-11-16T04:23:40.085Z,-1.32
2022-11-16T04:26:09.360Z,-1.39
2022-11-16T04:28:38.628Z,-1.34
2022-11-16T04:31:25.019Z,-1.33
2022-11-16T04:34:12.929Z,-1.49
2022-11-16T04:37:00.549Z,-1.41
2022-11-16T04:39:29.250Z,-1.36
2022-11-16T04:42:14.884Z,-1.35
2022-11-16T04:45:00.434Z,-1.38
2022-11-16T04:47:31.120Z,-1.36
2022-11-16T04:50:00.458Z,-1.36
2022-11-16T04:52:32.443Z,-1.50
2022-11-16T04:55:01.815Z,-1.44
2022-11-16T04:57:31.658Z,-1.44
2022-11-16T05:00:00.246Z,-1.49
2022-11-16T05:02:29.316Z,-1.44
2022-11-16T05:04:58.426Z,-1.36
2022-11-16T05:07:26.924Z,-1.32
2022-11-16T05:09:57.641Z,-1.55
2022-11-16T05:12:27.142Z,-1.52
2022-11-16T05:14:56.704Z,-1.63
2022-11-16T05:17:27.479Z,-1.59
2022-11-16T05:20:13.759Z,-1.55
2022-11-16T05:22:42.761Z,-1.56
2022-11-16T05:25:13.408Z,-1.55
2022-11-16T05:27:42.380Z,-1.49
2022-11-16T05:30:11.692Z,-1.48
2022-11-16T05:32:42.896Z,-1.41
2022-11-16T05:35:12.015Z,-1.45
2022-11-16T05:37:40.674Z,-1.56
2022-11-16T05:40:11.201Z,-1.51
2022-11-16T05:42:42.172Z,-1.56
2022-11-16T05:45:11.604Z,-1.52
2022-11-16T05:47:40.146Z,-1.56
2022-11-16T05:50:09.745Z,-1.48
2022-11-16T05:52:39.231Z,-1.47
2022-11-16T05:55:08.286Z,-1.55
2022-11-16T05:57:37.488Z,-1.46
2022-11-16T06:00:11.020Z,-1.50
2022-11-16T06:02:40.764Z,-1.47
2022-11-16T06:05:10.601Z,-1.36
2022-11-16T06:07:40.112Z,-1.33
2022-11-16T06:10:10.730Z,-1.28
2022-11-16T06:12:41.227Z,-1.17
2022-11-16T06:15:14.246Z,-1.12
2022-11-16T06:17:43.522Z,-1.03
2022-11-16T06:20:14.293Z,-1.02
2022-11-16T06:22:43.901Z,-1.11
2022-11-16T06:25:13.710Z,-1.06
2022-11-16T06:27:43.617Z,-0.99
2022-11-16T06:30:14.321Z,-1.15
2022-11-16T06:32:45.382Z,-1.03
2022-11-16T06:35:17.658Z,-1.01
2022-11-16T06:37:46.733Z,-1.08
2022-11-16T06:40:15.607Z,-0.96
2022-11-16T06:42:44.185Z,-0.96
2022-11-16T06:45:16.010Z,-1.00
2022-11-16T06:47:45.224Z,-0.96
2022-11-16T06:50:13.964Z,-1.00
2022-11-16T06:52:43.146Z,-1.06
2022-11-16T06:55:12.929Z,-1.14
2022-11-16T06:57:44.911Z,-1.13
2022-11-16T07:00:15.955Z,-1.59
2022-11-16T07:02:44.823Z,-1.46
2022-11-16T07:05:13.680Z,-1.38
2022-11-16T07:07:42.954Z,-1.43
2022-11-16T07:10:12.043Z,-1.39
2022-11-16T07:12:41.856Z,-1.38
2022-11-16T07:15:11.445Z,-1.44
2022-11-16T07:17:42.620Z,-1.42
2022-11-16T07:20:12.418Z,-1.35
2022-11-16T07:22:46.230Z,-1.36
2022-11-16T07:25:17.893Z,-1.38
2022-11-16T07:27:47.045Z,-1.38
2022-11-16T07:30:16.005Z,-1.35
2022-11-16T07:32:47.910Z,-1.28
2022-11-16T07:35:19.847Z,-1.23
2022-11-16T07:37:50.650Z,-1.14
2022-11-16T07:40:20.027Z,-1.04
2022-11-16T07:42:49.613Z,-0.98
2022-11-16T07:45:18.567Z,-0.83
2022-11-16T07:47:54.246Z,-0.64
2022-11-16T07:50:23.063Z,-0.51
2022-11-16T07:52:53.224Z,-0.38
2022-11-16T07:55:23.471Z,-0.42
2022-11-16T07:57:54.480Z,-0.20
2022-11-16T08:00:27.883Z,-0.13
2022-11-16T08:03:02.383Z,-0.08
2022-11-16T08:05:31.677Z,0.03
2022-11-16T08:08:00.798Z,0.00
2022-11-16T08:10:30.358Z,-0.04
2022-11-16T08:13:00.290Z,-0.16
2022-11-16T08:15:29.147Z,-0.19
2022-11-16T08:18:01.894Z,-0.11
2022-11-16T08:20:32.851Z,-0.02
2022-11-16T08:23:08.134Z,0.04
2022-11-16T08:25:37.297Z,0.18
2022-11-16T08:28:08.028Z,0.19
2022-11-16T08:30:41.977Z,0.32
2022-11-16T08:33:18.075Z,0.37
2022-11-16T08:35:49.947Z,0.37
2022-11-16T08:38:20.335Z,0.22
2022-11-16T08:40:51.621Z,0.44
2022-11-16T08:43:25.912Z,0.47
2022-11-16T08:45:56.545Z,0.38
2022-11-16T08:48:32.679Z,0.34
2022-11-16T08:51:21.564Z,0.39
2022-11-16T08:53:53.761Z,0.38
2022-11-16T08:56:22.792Z,0.41
2022-11-16T08:58:58.904Z,0.36
2022-11-16T09:01:32.061Z,0.32
2022-11-16T09:04:05.858Z,0.37
2022-11-16T09:06:39.394Z,0.47
2022-11-16T09:09:15.488Z,0.42
2022-11-16T09:11:47.540Z,0.45
2022-11-16T09:14:17.904Z,0.49
2022-11-16T09:16:50.108Z,0.47
2022-11-16T09:19:25.915Z,0.47
2022-11-16T09:21:54.837Z,0.55
2022-11-16T09:24:23.541Z,0.56
2022-11-16T09:26:54.920Z,0.62
2022-11-16T09:29:24.019Z,0.69
2022-11-16T09:31:53.131Z,0.77
2022-11-16T09:34:23.867Z,0.76
2022-11-16T09:36:52.865Z,0.71
2022-11-16T09:39:37.358Z,0.58
2022-11-16T09:42:22.035Z,0.45
2022-11-16T09:45:09.252Z,0.58
2022-11-16T09:47:43.407Z,0.58
2022-11-16T09:50:21.377Z,0.52
2022-11-16T09:52:53.097Z,0.55
2022-11-16T09:55:27.074Z,0.52
2022-11-16T09:57:58.025Z,0.40
2022-11-16T10:00:29.208Z,0.42
2022-11-16T10:03:02.289Z,0.38
2022-11-16T10:05:36.657Z,0.47
2022-11-16T10:08:09.847Z,0.51
2022-11-16T10:10:40.213Z,0.50
2022-11-16T10:13:14.590Z,0.32
2022-11-16T10:15:59.540Z,0.32
2022-11-16T10:18:49.188Z,0.38
2022-11-16T10:21:35.546Z,0.43
2022-11-16T10:24:22.761Z,0.51
2022-11-16T10:26:56.527Z,0.33
2022-11-16T10:29:35.409Z,0.32
2022-11-16T10:32:18.927Z,0.36
2022-11-16T10:34:52.444Z,0.48
2022-11-16T10:37:26.038Z,0.65
2022-11-16T10:39:55.287Z,0.76
2022-11-16T10:42:29.679Z,0.86
2022-11-16T10:45:02.524Z,0.87
2022-11-16T10:47:38.754Z,0.87
2022-11-16T10:50:16.799Z,0.97
2022-11-16T10:52:46.974Z,1.06
2022-11-16T10:55:17.411Z,1.04
2022-11-16T10:57:58.067Z,0.88
2022-11-16T11:00:38.110Z,1.00
2022-11-16T11:03:11.135Z,1.15
2022-11-16T11:05:48.970Z,1.29
2022-11-16T11:08:31.367Z,1.34
2022-11-16T11:11:28.632Z,1.38
2022-11-16T11:14:06.495Z,1.42
2022-11-16T11:16:35.683Z,1.49
2022-11-16T11:19:19.875Z,1.43
2022-11-16T11:21:51.397Z,1.43
2022-11-16T11:24:49.031Z,1.37
2022-11-16T11:27:24.061Z,1.32
2022-11-16T11:29:54.525Z,1.13
2022-11-16T11:32:31.058Z,0.76
2022-11-16T11:35:07.842Z,0.57
2022-11-16T11:37:41.317Z,0.44
2022-11-16T11:40:24.722Z,0.40
2022-11-16T11:42:59.565Z,0.44
2022-11-16T11:45:44.782Z,0.48
2022-11-16T11:48:24.791Z,0.51
2022-11-16T11:50:58.120Z,0.62
2022-11-16T11:53:39.503Z,0.62
2022-11-16T11:56:13.398Z,0.64
2022-11-16T11:58:44.991Z,0.70
2022-11-16T12:01:25.575Z,0.66
2022-11-16T12:04:10.665Z,0.58
2022-11-16T12:06:43.889Z,0.50
2022-11-16T12:09:20.370Z,0.32
2022-11-16T12:12:00.194Z,0.42
2022-11-16T12:14:36.931Z,0.47
2022-11-16T12:17:10.153Z,0.48
2022-11-16T12:19:59.594Z,0.39
2022-11-16T12:22:45.903Z,0.34
2022-11-16T12:25:20.450Z,0.30
2022-11-16T12:27:53.657Z,0.33
2022-11-16T12:30:24.533Z,0.35
2022-11-16T12:32:58.604Z,0.28
2022-11-16T12:35:32.825Z,0.29
2022-11-16T12:38:06.683Z,0.23
2022-11-16T12:40:44.530Z,0.19
2022-11-16T12:43:19.669Z,0.12
2022-11-16T12:46:10.424Z,0.06
2022-11-16T12:49:00.218Z,-0.12
2022-11-16T12:51:34.519Z,-0.34
2022-11-16T12:54:14.065Z,-0.28
2022-11-16T12:56:50.019Z,-0.31
2022-11-16T12:59:26.926Z,-0.40
2022-11-16T13:02:02.086Z,-0.42
2022-11-16T13:04:35.345Z,-0.47
2022-11-16T13:07:10.910Z,-0.53
2022-11-16T13:09:43.121Z,-0.71
2022-11-16T13:12:14.389Z,-0.75
2022-11-16T13:14:47.559Z,-0.84
2022-11-16T13:17:22.372Z,-0.94
2022-11-16T13:20:00.684Z,-1.02
2022-11-16T13:22:29.860Z,-1.16
2022-11-16T13:25:05.917Z,-1.28
2022-11-16T13:27:39.467Z,-1.44
2022-11-16T13:30:20.396Z,-1.47
2022-11-16T13:33:00.132Z,-1.47
2022-11-16T13:35:29.844Z,-1.51
2022-11-16T13:37:58.902Z,-1.55
2022-11-16T13:40:29.319Z,-1.57
2022-11-16T13:43:16.089Z,-1.59
2022-11-16T13:45:53.381Z,-1.57
2022-11-16T13:48:24.714Z,-1.57
2022-11-16T13:50:58.703Z,-1.60
2022-11-16T13:54:25.237Z,-1.78
2022-11-16T13:56:21.795Z,-1.58
2022-11-16T13:58:55.503Z,-1.56
2022-11-16T14:01:29.147Z,-1.55
2022-11-16T14:04:30.980Z,-1.51
2022-11-16T14:07:03.064Z,-1.51
2022-11-16T14:09:52.467Z,-1.50
2022-11-16T14:12:40.879Z,-1.54
2022-11-16T14:15:18.502Z,-1.57
2022-11-16T14:17:59.798Z,-1.60
2022-11-16T14:20:43.932Z,-1.67
2022-11-16T14:23:27.781Z,-1.74
2022-11-16T14:25:59.580Z,-1.81
2022-11-16T14:28:38.121Z,-1.90
2022-11-16T14:31:09.617Z,-1.97
2022-11-16T14:33:41.748Z,-2.06
2022-11-16T14:36:11.482Z,-2.13
2022-11-16T14:38:41.231Z,-2.21
2022-11-16T14:41:15.342Z,-2.28
2022-11-16T14:43:46.332Z,-2.36
2022-11-16T14:46:19.711Z,-2.66
2022-11-16T14:48:51.382Z,-2.46
2022-11-16T14:51:22.693Z,-2.51
2022-11-16T14:53:54.303Z,-2.54
2022-11-16T14:56:23.334Z,-2.58
2022-11-16T14:58:56.135Z,-2.63
2022-11-16T15:01:27.161Z,-2.70
2022-11-16T15:04:02.556Z,-2.74
2022-11-16T15:06:32.621Z,-2.76
2022-11-16T15:09:02.371Z,-2.77
2022-11-16T15:11:46.619Z,-2.78
2022-11-16T15:14:18.276Z,-2.81
2022-11-16T15:16:50.818Z,-2.80
2022-11-16T15:19:21.128Z,-2.76
2022-11-16T15:21:54.050Z,-2.76
2022-11-16T15:24:30.861Z,-2.92
2022-11-16T15:27:04.699Z,-2.72
2022-11-16T15:29:33.825Z,-2.77
2022-11-16T15:32:03.363Z,-2.82
2022-11-16T15:34:34.609Z,-2.83
2022-11-16T15:37:03.439Z,-2.85
2022-11-16T15:39:35.799Z,-2.83
2022-11-16T15:42:04.940Z,-2.82
2022-11-16T15:44:35.481Z,-2.81
2022-11-16T15:47:07.065Z,-2.84
2022-11-16T15:49:40.252Z,-2.80
2022-11-16T15:52:09.397Z,-2.77
2022-11-16T15:54:53.018Z,-2.77
2022-11-16T15:57:23.085Z,-2.78
2022-11-16T15:59:57.443Z,-2.78
2022-11-16T16:02:28.289Z,-2.79
2022-11-16T16:04:58.996Z,-2.78
2022-11-16T16:07:40.567Z,-2.79
2022-11-16T16:10:25.987Z,-2.75
2022-11-16T16:12:55.934Z,-2.73
2022-11-16T16:15:26.311Z,-2.74
2022-11-16T16:17:55.569Z,-2.78
2022-11-16T16:20:26.550Z,-2.83
2022-11-16T16:22:55.266Z,-2.77
2022-11-16T16:25:32.325Z,-2.76
2022-11-16T16:28:01.465Z,-2.95
2022-11-16T16:30:32.037Z,-2.79
2022-11-16T16:33:02.246Z,-2.77
2022-11-16T16:35:32.521Z,-2.78
2022-11-16T16:38:03.795Z,-2.79
2022-11-16T16:40:36.555Z,-2.82
2022-11-16T16:43:05.057Z,-2.78
2022-11-16T16:45:37.344Z,-2.76
2022-11-16T16:48:06.673Z,-2.78
2022-11-16T16:50:37.642Z,-2.73
2022-11-16T16:53:06.766Z,-2.72
2022-11-16T16:55:37.856Z,-2.72
2022-11-16T16:58:07.418Z,-2.76
2022-11-16T17:00:36.661Z,-2.74
2022-11-16T17:03:05.643Z,-2.74
2022-11-16T17:05:35.565Z,-2.76
2022-11-16T17:08:06.476Z,-2.69
2022-11-16T17:10:36.030Z,-2.67
2022-11-16T17:13:05.472Z,-2.70
2022-11-16T17:15:35.594Z,-2.72
2022-11-16T17:18:04.129Z,-2.76
2022-11-16T17:20:33.427Z,-2.74
2022-11-16T17:23:02.120Z,-2.78
2022-11-16T17:25:33.270Z,-2.84
2022-11-16T17:28:02.697Z,-2.85
2022-11-16T17:30:32.012Z,-2.88
2022-11-16T17:33:01.702Z,-2.89
2022-11-16T17:35:30.905Z,-2.90
2022-11-16T17:38:00.064Z,-2.87
2022-11-16T17:40:28.715Z,-2.81
2022-11-16T17:42:59.608Z,-2.78
2022-11-16T17:45:28.201Z,-2.82
2022-11-16T17:47:57.220Z,-2.84
2022-11-16T17:50:26.609Z,-2.92
2022-11-16T17:52:55.524Z,-2.89
2022-11-16T17:55:28.997Z,-2.86
2022-11-16T17:57:59.752Z,-2.82
2022-11-16T18:00:28.409Z,-2.77
2022-11-16T18:02:57.623Z,-2.73
2022-11-16T18:05:28.339Z,-2.68
2022-11-16T18:07:59.011Z,-2.62
2022-11-16T18:10:27.869Z,-2.55
2022-11-16T18:12:56.661Z,-2.51
2022-11-16T18:15:28.961Z,-2.47
2022-11-16T18:17:59.227Z,-2.45
2022-11-16T18:20:28.722Z,-2.41
2022-11-16T18:22:58.549Z,-2.41
2022-11-16T18:25:27.430Z,-2.47
2022-11-16T18:27:57.302Z,-2.47
2022-11-16T18:30:28.838Z,-2.49
2022-11-16T18:32:57.998Z,-2.52
2022-11-16T18:35:27.743Z,-2.58
2022-11-16T18:37:56.483Z,-2.59
2022-11-16T18:40:25.595Z,-2.63
2022-11-16T18:42:55.602Z,-2.63
2022-11-16T18:45:26.789Z,-2.68
2022-11-16T18:47:58.026Z,-2.73
2022-11-16T18:50:27.747Z,-2.75
2022-11-16T18:52:57.738Z,-2.80
2022-11-16T18:55:26.959Z,-2.85
2022-11-16T18:57:55.724Z,-2.88
2022-11-16T19:00:24.398Z,-2.86
2022-11-16T19:02:53.168Z,-2.87
2022-11-16T19:05:24.397Z,-2.81
2022-11-16T19:07:53.121Z,-2.75
2022-11-16T19:10:22.699Z,-2.72
2022-11-16T19:12:51.235Z,-2.63
2022-11-16T19:15:20.184Z,-2.61
2022-11-16T19:18:19.414Z,-2.49
2022-11-16T19:20:38.696Z,-2.39
2022-11-16T19:23:07.182Z,-2.30
2022-11-16T19:25:36.315Z,-2.19
2022-11-16T19:28:05.613Z,-2.08
2022-11-16T19:30:34.313Z,-1.97
2022-11-16T19:33:04.830Z,-1.90
2022-11-16T19:35:34.336Z,-1.82
2022-11-16T19:38:05.334Z,-1.77
2022-11-16T19:40:34.324Z,-1.71
2022-11-16T19:43:04.226Z,-1.64
2022-11-16T19:45:33.154Z,-1.60
2022-11-16T19:48:01.912Z,-1.57
2022-11-16T19:50:32.151Z,-1.55
2022-11-16T19:53:00.794Z,-1.52
2022-11-16T19:55:31.229Z,-1.51
2022-11-16T19:57:59.539Z,-1.51
2022-11-16T20:00:28.131Z,-1.50
2022-11-16T20:02:58.462Z,-1.54
2022-11-16T20:05:30.476Z,-1.71
2022-11-16T20:07:59.317Z,-1.96
2022-11-16T20:10:31.651Z,-1.97
2022-11-16T20:13:01.761Z,-1.91
2022-11-16T20:15:30.782Z,-1.89
2022-11-16T20:18:00.129Z,-2.00
2022-11-16T20:20:29.299Z,-2.06
2022-11-16T20:22:59.134Z,-2.05
2022-11-16T20:25:30.047Z,-2.10
2022-11-16T20:27:59.177Z,-2.11
2022-11-16T20:30:29.781Z,-2.11
2022-11-16T20:32:58.301Z,-2.12
2022-11-16T20:35:27.206Z,-2.14
2022-11-16T20:37:55.828Z,-2.08
2022-11-16T20:40:24.670Z,-2.07
2022-11-16T20:42:53.143Z,-2.09
2022-11-16T20:45:22.364Z,-2.04
2022-11-16T20:47:52.716Z,-2.03
2022-11-16T20:50:22.268Z,-2.10
2022-11-16T20:52:52.843Z,-2.02
2022-11-16T20:55:21.868Z,-1.95
2022-11-16T20:57:50.553Z,-1.92
2022-11-16T21:00:20.194Z,-1.84
2022-11-16T21:02:49.320Z,-1.80
2022-11-16T21:05:19.302Z,-1.74
2022-11-16T21:07:47.734Z,-1.71
2022-11-16T21:10:22.780Z,-1.73
2022-11-16T21:13:08.271Z,-1.66
2022-11-16T21:15:37.128Z,-1.61
2022-11-16T21:18:05.596Z,-1.59
2022-11-16T21:20:35.363Z,-1.64
2022-11-16T21:23:04.361Z,-1.65
2022-11-16T21:25:33.110Z,-1.64
2022-11-16T21:28:02.361Z,-1.65
2022-11-16T21:30:31.356Z,-1.63
2022-11-16T21:32:59.967Z,-1.72
2022-11-16T21:35:28.695Z,-1.71
2022-11-16T21:37:59.052Z,-1.65
2022-11-16T21:40:27.564Z,-1.66
2022-11-16T21:42:56.286Z,-1.66
2022-11-16T21:45:25.205Z,-1.62
2022-11-16T21:47:53.597Z,-1.62
2022-11-16T21:50:31.497Z,-1.60
2022-11-16T21:53:03.117Z,-1.56
2022-11-16T21:55:31.555Z,-1.54
2022-11-16T21:58:00.317Z,-1.46
2022-11-16T22:00:30.284Z,-1.42
2022-11-16T22:02:59.303Z,-1.37
2022-11-16T22:05:45.492Z,-1.33
2022-11-16T22:08:15.739Z,-1.25
2022-11-16T22:10:44.787Z,-1.22
2022-11-16T22:13:13.242Z,-1.16
2022-11-16T22:15:42.055Z,-1.11
2022-11-16T22:18:10.305Z,-1.12
2022-11-16T22:20:39.285Z,-1.10
2022-11-16T22:23:07.988Z,-1.11
2022-11-16T22:25:42.185Z,-1.19
2022-11-16T22:28:20.538Z,-1.21
2022-11-16T22:30:51.993Z,-1.34
2022-11-16T22:33:22.411Z,-1.30
2022-11-16T22:35:50.834Z,-1.29
2022-11-16T22:38:19.200Z,-1.32
2022-11-16T22:40:53.272Z,-1.27
2022-11-16T22:43:22.589Z,-1.28
2022-11-16T22:45:53.132Z,-1.29
2022-11-16T22:48:22.032Z,-1.26
2022-11-16T22:50:50.783Z,-1.25
2022-11-16T22:53:19.596Z,-1.27
2022-11-16T22:55:47.714Z,-1.26
2022-11-16T22:58:18.306Z,-1.24
2022-11-16T23:00:46.625Z,-1.23
2022-11-16T23:03:18.022Z,-1.20
2022-11-16T23:05:47.097Z,-1.25
2022-11-16T23:08:17.132Z,-1.30
2022-11-16T23:10:59.247Z,-1.23
2022-11-16T23:13:47.957Z,-1.30
2022-11-16T23:16:18.667Z,-1.41
2022-11-16T23:18:47.806Z,-1.40
2022-11-16T23:21:48.310Z,-1.52
2022-11-16T23:24:34.129Z,-1.46
2022-11-16T23:27:22.350Z,-1.53
2022-11-16T23:29:53.790Z,-1.52
2022-11-16T23:32:22.255Z,-1.55
2022-11-16T23:34:51.149Z,-1.57
2022-11-16T23:37:20.545Z,-1.56
2022-11-16T23:39:49.402Z,-1.55
2022-11-16T23:42:41.269Z,-1.55
2022-11-16T23:45:11.773Z,-1.58
2022-11-16T23:47:41.540Z,-1.55
2022-11-16T23:50:11.396Z,-1.48
2022-11-16T23:52:39.720Z,-1.63
2022-11-16T23:55:08.549Z,-1.67
2022-11-16T23:57:37.698Z,-1.56
